Time;durP1;ratioP1;P1;durP2;ratioP2;P2;SDS_P1;SDS_P2;PMS_P1;PMS_P2;Temp;Humidity;BMP_temperature;BMP_pressure;BME280_temperature;BME280_humidity;BME280_pressure;Samples;Min_cycle;Max_cycle;Signal;HPM_P1;HPM_P2
2022/08/27 00:00:04;;;;;;;3.10;1.88;;;;;;;17.03;95.56;101552.22;6185589;23;20009;-75
2022/08/27 00:02:30;;;;;;;10.73;2.63;;;;;;;17.11;95.29;101555.38;6181537;23;20012;-75
2022/08/27 00:04:55;;;;;;;3.25;1.95;;;;;;;17.09;99.39;101557.53;6159098;23;20399;-75
2022/08/27 00:07:20;;;;;;;8.50;2.60;;;;;;;17.06;99.77;101552.59;6158683;23;20012;-75
2022/08/27 00:09:46;;;;;;;6.38;2.45;;;;;;;17.05;99.58;101547.38;6185153;23;20005;-75
2022/08/27 00:12:11;;;;;;;9.15;2.60;;;;;;;17.05;99.24;101539.16;6185015;23;20001;-75
2022/08/27 00:14:37;;;;;;;5.68;2.70;;;;;;;16.97;99.42;101557.63;6185237;23;20016;-75
2022/08/27 00:17:05;;;;;;;7.47;2.70;;;;;;;16.92;99.56;101551.25;6184305;23;20378;-75
2022/08/27 00:19:30;;;;;;;8.60;2.33;;;;;;;16.91;100.00;101553.19;6185167;23;20434;-75
2022/08/27 00:21:56;;;;;;;7.80;2.63;;;;;;;16.86;100.00;101546.78;6158906;23;20009;-75
2022/08/27 00:24:22;;;;;;;10.02;2.10;;;;;;;16.80;100.00;101535.78;6184691;23;20028;-75
2022/08/27 00:26:49;;;;;;;10.93;2.70;;;;;;;16.84;100.00;101541.56;6185185;23;20041;-75
2022/08/27 00:29:14;;;;;;;8.05;2.33;;;;;;;16.84;100.00;101533.34;6185006;23;20005;-75
2022/08/27 00:31:39;;;;;;;6.97;2.47;;;;;;;16.82;100.00;101532.78;6184581;23;20296;-75
2022/08/27 00:34:05;;;;;;;7.75;2.45;;;;;;;16.78;100.00;101535.16;6184633;23;20075;-75
2022/08/27 00:36:30;;;;;;;7.97;2.45;;;;;;;16.64;100.00;101536.59;6184525;23;20069;-75
2022/08/27 00:38:55;;;;;;;5.95;2.53;;;;;;;16.52;100.00;101535.88;6185058;23;20023;-75
2022/08/27 00:41:21;;;;;;;10.02;3.20;;;;;;;16.44;100.00;101535.19;6184980;23;20008;-75
2022/08/27 00:43:55;;;;;;;7.85;2.83;;;;;;;16.36;100.00;101543.78;6185054;23;20051;-75
2022/08/27 00:46:23;;;;;;;6.50;2.72;;;;;;;16.30;100.00;101539.31;6183936;23;20311;-75
2022/08/27 00:48:52;;;;;;;5.22;2.70;;;;;;;16.29;100.00;101543.13;6158600;23;20205;-75
2022/08/27 00:51:20;;;;;;;8.23;2.97;;;;;;;16.35;100.00;101536.69;6184370;23;20008;-75
2022/08/27 00:53:45;;;;;;;5.20;2.50;;;;;;;16.37;100.00;101534.53;6184915;23;20016;-75
2022/08/27 00:56:16;;;;;;;7.20;2.90;;;;;;;16.21;100.00;101535.31;6158057;23;20009;-75
2022/08/27 00:58:48;;;;;;;6.20;2.80;;;;;;;16.16;100.00;101544.25;6183976;23;20001;-75
2022/08/27 01:01:18;;;;;;;8.30;2.70;;;;;;;16.11;100.00;101541.44;6181415;23;20005;-74
2022/08/27 01:03:49;;;;;;;6.82;2.65;;;;;;;16.13;100.00;101531.91;6185066;23;20085;-74
2022/08/27 01:06:17;;;;;;;5.90;2.97;;;;;;;16.06;100.00;101542.19;6184698;23;20048;-74
2022/08/27 01:08:56;;;;;;;7.50;3.03;;;;;;;15.97;100.00;101540.91;6158147;23;20249;-74
2022/08/27 01:11:23;;;;;;;8.18;3.28;;;;;;;15.95;100.00;101534.88;6184843;23;20001;-74
2022/08/27 01:13:50;;;;;;;8.73;3.20;;;;;;;15.91;100.00;101537.25;6184563;23;20012;-74
2022/08/27 01:16:19;;;;;;;6.35;3.03;;;;;;;15.81;100.00;101531.59;6184405;23;20037;-74
2022/08/27 01:18:45;;;;;;;7.13;3.03;;;;;;;15.76;100.00;101521.38;6157881;23;20009;-75
2022/08/27 01:21:35;;;;;;;7.88;3.30;;;;;;;15.81;100.00;101530.78;6184272;23;20001;-74
2022/08/27 01:24:19;;;;;;;7.07;2.97;;;;;;;15.73;100.00;101532.78;6184548;23;20033;-74
2022/08/27 01:26:44;;;;;;;9.98;3.10;;;;;;;15.65;100.00;101527.69;6153971;23;20147;-74
2022/08/27 01:29:10;;;;;;;10.63;3.53;;;;;;;15.69;100.00;101528.06;6184661;23;20036;-74
2022/08/27 01:31:36;;;;;;;7.50;3.20;;;;;;;15.71;100.00;101531.38;6184807;23;20009;-74
2022/08/27 01:34:04;;;;;;;10.45;3.50;;;;;;;15.68;100.00;101521.75;6184526;23;20092;-74
2022/08/27 01:36:30;;;;;;;9.18;3.38;;;;;;;15.68;100.00;101524.50;6184533;23;20009;-74
2022/08/27 01:38:56;;;;;;;10.48;3.20;;;;;;;15.71;100.00;101521.28;6184694;23;20499;-74
2022/08/27 01:41:23;;;;;;;7.43;3.42;;;;;;;15.70;100.00;101530.56;6157094;23;20040;-74
2022/08/27 01:43:48;;;;;;;11.60;3.50;;;;;;;15.71;100.00;101524.00;6183804;23;20084;-74
2022/08/27 01:46:19;;;;;;;7.88;3.55;;;;;;;15.79;100.00;101527.44;6157691;23;20043;-74
2022/08/27 01:48:45;;;;;;;8.43;3.63;;;;;;;15.77;100.00;101528.50;6158484;23;20009;-74
2022/08/27 01:51:10;;;;;;;9.98;3.15;;;;;;;15.84;100.00;101516.66;6184623;23;20330;-74
2022/08/27 01:53:35;;;;;;;9.80;3.63;;;;;;;15.70;100.00;101516.06;6184986;23;20059;-74
2022/08/27 01:56:01;;;;;;;7.60;3.10;;;;;;;15.77;100.00;101525.78;6158294;23;20033;-74
2022/08/27 01:58:29;;;;;;;6.93;3.33;;;;;;;15.63;100.00;101518.13;6184055;23;19997;-74
2022/08/27 02:00:58;;;;;;;8.18;3.70;;;;;;;15.72;100.00;101520.22;6181523;23;20005;-74
2022/08/27 02:03:24;;;;;;;5.47;3.20;;;;;;;15.74;100.00;101520.78;6183647;23;20005;-74
2022/08/27 02:05:50;;;;;;;8.48;4.43;;;;;;;15.69;100.00;101515.25;6184343;23;20009;-74
2022/08/27 02:08:16;;;;;;;8.13;3.55;;;;;;;15.65;100.00;101521.44;6159882;23;20032;-75
2022/08/27 02:10:43;;;;;;;9.18;3.30;;;;;;;15.62;100.00;101509.09;6186801;23;20419;-75
2022/08/27 02:13:10;;;;;;;8.18;3.50;;;;;;;15.62;100.00;101511.81;6187035;23;20009;-75
2022/08/27 02:15:36;;;;;;;8.13;3.58;;;;;;;15.60;100.00;101512.06;6186064;23;20028;-74
2022/08/27 02:18:03;;;;;;;10.10;3.80;;;;;;;15.55;100.00;101511.13;6186728;23;20005;-74
2022/08/27 02:20:29;;;;;;;9.27;3.47;;;;;;;15.57;100.00;101514.47;6209157;23;19996;-75
2022/08/27 02:22:55;;;;;;;9.32;3.70;;;;;;;15.52;100.00;101509.72;6207795;23;20013;-74
2022/08/27 02:25:20;;;;;;;7.07;3.42;;;;;;;15.50;100.00;101508.31;6159178;23;20379;-73
2022/08/27 02:27:48;;;;;;;7.78;3.55;;;;;;;15.50;100.00;101502.84;6186638;23;20009;-74
2022/08/27 02:30:16;;;;;;;10.90;3.92;;;;;;;15.48;100.00;101502.28;6159741;23;20012;-74
2022/08/27 02:32:42;;;;;;;5.68;3.75;;;;;;;15.39;100.00;101502.63;6186319;23;20001;-74
2022/08/27 02:35:08;;;;;;;8.38;3.88;;;;;;;15.45;100.00;101500.03;6186242;23;20005;-77
2022/08/27 02:37:35;;;;;;;8.25;4.10;;;;;;;15.35;100.00;101498.75;6159431;23;20140;-74
2022/08/27 02:40:01;;;;;;;7.47;3.88;;;;;;;15.34;100.00;101501.69;6185772;23;20009;-74
2022/08/27 02:42:26;;;;;;;7.15;3.70;;;;;;;15.28;100.00;101497.22;6185938;23;20084;-74
2022/08/27 02:44:53;;;;;;;10.32;4.20;;;;;;;15.34;100.00;101504.44;6185715;23;20008;-74
2022/08/27 02:47:19;;;;;;;6.95;3.72;;;;;;;15.30;100.00;101501.38;6185851;23;20427;-74
2022/08/27 02:49:44;;;;;;;7.40;4.10;;;;;;;15.29;100.00;101502.41;6186123;23;20008;-74
2022/08/27 02:52:10;;;;;;;8.23;4.20;;;;;;;15.29;100.00;101502.41;6186212;23;20037;-75
2022/08/27 02:54:36;;;;;;;8.15;3.78;;;;;;;15.29;100.00;101501.59;6185072;23;20009;-74
2022/08/27 02:57:01;;;;;;;8.90;4.30;;;;;;;15.32;100.00;101499.22;6185670;23;20450;-74
2022/08/27 02:59:26;;;;;;;9.45;4.30;;;;;;;15.29;100.00;101502.41;6185677;23;20005;-74
2022/08/27 03:01:52;;;;;;;8.20;3.90;;;;;;;15.27;100.00;101503.75;6183229;23;20088;-74
2022/08/27 03:04:18;;;;;;;8.30;4.20;;;;;;;15.28;100.00;101499.94;6185728;23;20079;-74
2022/08/27 03:06:45;;;;;;;10.93;4.72;;;;;;;15.25;100.00;101506.72;6185483;23;20011;-74
2022/08/27 03:09:11;;;;;;;8.85;4.05;;;;;;;15.23;100.00;101509.69;6185416;23;20064;-74
2022/08/27 03:11:36;;;;;;;11.73;4.60;;;;;;;15.18;100.00;101506.00;6185000;23;20005;-74
2022/08/27 03:14:02;;;;;;;10.38;4.30;;;;;;;15.17;100.00;101501.63;6185529;23;20007;-74
2022/08/27 03:16:28;;;;;;;8.95;4.68;;;;;;;15.19;100.00;101503.06;6185627;23;20035;-74
2022/08/27 03:18:53;;;;;;;11.10;4.78;;;;;;;15.22;100.00;101508.03;6185748;23;20001;-74
2022/08/27 03:21:23;;;;;;;8.40;4.68;;;;;;;15.20;100.00;101509.31;6185567;23;20044;-74
2022/08/27 03:23:49;;;;;;;10.43;4.53;;;;;;;15.22;100.00;101504.47;6185801;23;20014;-74
2022/08/27 03:26:15;;;;;;;8.02;4.32;;;;;;;15.25;100.00;101506.72;6158909;23;20016;-74
2022/08/27 03:28:40;;;;;;;10.45;4.80;;;;;;;15.17;100.00;101507.06;6184582;23;20001;-74
2022/08/27 03:31:13;;;;;;;7.25;4.40;;;;;;;15.22;100.00;101515.38;6185759;23;20375;-74
2022/08/27 03:33:39;;;;;;;14.38;4.90;;;;;;;15.22;100.00;101509.94;6185466;23;20354;-74
2022/08/27 03:36:06;;;;;;;11.75;4.68;;;;;;;15.21;100.00;101505.53;6185750;23;20072;-74
2022/08/27 03:38:32;;;;;;;10.65;4.90;;;;;;;15.20;100.00;101506.59;6159023;23;20008;-74
2022/08/27 03:40:57;;;;;;;10.32;4.50;;;;;;;15.14;100.00;101504.81;6158815;23;20005;-74
2022/08/27 03:43:23;;;;;;;7.53;4.60;;;;;;;15.14;100.00;101504.81;6185043;23;20016;-74
2022/08/27 03:45:50;;;;;;;11.82;4.60;;;;;;;15.18;100.00;101503.28;6185609;23;20001;-74
2022/08/27 03:48:17;;;;;;;11.77;4.85;;;;;;;15.12;100.00;101509.69;6185594;23;20009;-74
2022/08/27 03:50:45;;;;;;;10.85;4.78;;;;;;;15.23;100.00;101511.56;6158102;23;20040;-74
2022/08/27 03:53:11;;;;;;;8.73;4.43;;;;;;;15.20;100.00;101512.91;6159118;23;20012;-74
2022/08/27 03:55:37;;;;;;;10.50;5.07;;;;;;;15.30;100.00;101514.19;6184818;23;20027;-74
2022/08/27 03:58:02;;;;;;;10.80;4.80;;;;;;;15.29;100.00;101523.41;6185041;23;20001;-74
2022/08/27 04:00:28;;;;;;;10.43;4.93;;;;;;;15.27;100.00;101510.03;6183586;23;20437;-74
2022/08/27 04:02:54;;;;;;;10.88;4.93;;;;;;;15.22;100.00;101501.75;6184134;23;20005;-74
2022/08/27 04:05:20;;;;;;;6.57;4.72;;;;;;;15.24;100.00;101505.06;6184902;23;20008;-74
2022/08/27 04:07:46;;;;;;;9.23;4.90;;;;;;;15.22;100.00;101508.03;6185415;23;20020;-74
2022/08/27 04:10:13;;;;;;;9.82;4.60;;;;;;;15.29;100.00;101507.06;6185405;23;20017;-74
2022/08/27 04:12:39;;;;;;;11.90;4.85;;;;;;;15.28;100.00;101508.97;6184058;23;20027;-74
2022/08/27 04:15:05;;;;;;;11.05;5.15;;;;;;;15.18;100.00;101501.38;6184875;23;20001;-74
2022/08/27 04:17:31;;;;;;;7.05;5.13;;;;;;;15.23;100.00;101508.84;6184565;23;20485;-74
2022/08/27 04:19:58;;;;;;;13.48;5.05;;;;;;;15.23;100.00;101508.84;6185447;23;20005;-74
2022/08/27 04:22:24;;;;;;;9.18;4.65;;;;;;;15.19;100.00;101503.06;6184859;23;20071;-74
2022/08/27 04:24:50;;;;;;;7.88;4.60;;;;;;;15.23;100.00;101498.78;6185330;23;20005;-74
2022/08/27 04:27:16;;;;;;;7.70;4.78;;;;;;;15.28;100.00;101500.78;6184371;23;20020;-74
2022/08/27 04:29:41;;;;;;;11.30;5.05;;;;;;;15.24;100.00;101507.78;6184581;23;20000;-74
2022/08/27 04:32:07;;;;;;;8.65;4.50;;;;;;;15.19;100.00;101505.78;6158827;23;20009;-74
2022/08/27 04:34:33;;;;;;;8.50;4.65;;;;;;;15.19;100.00;101502.22;6184396;23;20442;-74
2022/08/27 04:36:58;;;;;;;8.75;4.82;;;;;;;15.21;100.00;101509.09;6184361;23;20033;-74
2022/08/27 04:39:26;;;;;;;11.85;5.20;;;;;;;15.19;100.00;101513.97;6184810;23;20001;-74
2022/08/27 04:41:58;;;;;;;10.82;4.88;;;;;;;15.21;100.00;101516.44;6184255;23;20008;-74
2022/08/27 04:44:26;;;;;;;11.60;4.93;;;;;;;15.13;100.00;101511.38;6158857;23;20005;-74
2022/08/27 04:46:55;;;;;;;10.90;5.25;;;;;;;15.11;100.00;101514.31;6185347;23;20005;-74
2022/08/27 04:49:20;;;;;;;15.43;5.20;;;;;;;15.14;100.00;101515.72;6162466;23;20024;-74
2022/08/27 04:51:45;;;;;;;9.10;5.28;;;;;;;15.18;100.00;101511.47;6212591;23;20005;-73
2022/08/27 04:54:11;;;;;;;9.27;5.05;;;;;;;15.16;100.00;101519.06;6193411;23;20005;-73
2022/08/27 04:56:37;;;;;;;9.30;4.80;;;;;;;15.16;100.00;101513.63;6185014;23;20059;-73
2022/08/27 04:59:05;;;;;;;10.77;5.20;;;;;;;15.17;100.00;101518.81;6185170;23;20012;-73
2022/08/27 05:01:30;;;;;;;11.35;5.25;;;;;;;15.12;100.00;101515.16;6156708;23;20442;-73
2022/08/27 05:03:57;;;;;;;11.43;5.45;;;;;;;15.15;100.00;101518.22;6184684;23;20005;-74
2022/08/27 05:06:23;;;;;;;8.88;5.18;;;;;;;15.22;100.00;101518.09;6158569;23;20045;-74
2022/08/27 05:08:50;;;;;;;9.30;5.03;;;;;;;15.22;100.00;101524.38;6184750;23;20430;-74
2022/08/27 05:11:18;;;;;;;8.23;4.88;;;;;;;15.27;100.00;101520.13;6184168;23;20011;-74
2022/08/27 05:13:44;;;;;;;12.02;5.25;;;;;;;15.33;100.00;101524.59;6158063;23;20005;-74
2022/08/27 05:16:12;;;;;;;9.80;5.60;;;;;;;15.34;100.00;101520.78;6184341;23;20009;-74
2022/08/27 05:18:39;;;;;;;9.80;5.13;;;;;;;15.37;100.00;101521.16;6205964;23;19993;-74
2022/08/27 05:21:06;;;;;;;10.68;4.85;;;;;;;15.41;100.00;101529.66;6208790;23;20019;-73
2022/08/27 05:23:32;;;;;;;9.98;5.35;;;;;;;15.40;100.00;101526.13;6185324;23;20056;-73
2022/08/27 05:25:59;;;;;;;10.00;5.53;;;;;;;15.31;100.00;101516.66;6185265;23;20001;-74
2022/08/27 05:28:26;;;;;;;10.43;5.50;;;;;;;15.23;100.00;101520.59;6183946;23;20005;-74
2022/08/27 05:31:01;;;;;;;13.02;6.10;;;;;;;15.14;100.00;101524.75;6184897;23;20005;-74
2022/08/27 05:33:26;;;;;;;11.63;5.80;;;;;;;15.09;100.00;101519.19;6184750;23;20016;-74
2022/08/27 05:35:54;;;;;;;10.38;5.25;;;;;;;15.12;100.00;101523.34;6184826;23;20354;-74
2022/08/27 05:38:21;;;;;;;13.50;6.10;;;;;;;15.14;100.00;101522.03;6184245;23;20063;-74
2022/08/27 05:40:47;;;;;;;10.88;6.25;;;;;;;15.17;100.00;101527.00;6185139;23;20013;-73
2022/08/27 05:43:14;;;;;;;11.38;6.22;;;;;;;15.27;100.00;101531.03;6186094;23;20009;-74
2022/08/27 05:45:46;;;;;;;12.15;6.63;;;;;;;15.25;100.00;101525.81;6186502;23;20009;-74
2022/08/27 05:48:14;;;;;;;;;;;;;;;15.47;100.00;101534.16;6187311;23;20032;-74
2022/08/27 05:50:41;;;;;;;9.88;6.45;;;;;;;15.36;100.00;101535.84;6186290;23;19910;-74
2022/08/27 05:53:07;;;;;;;9.77;6.25;;;;;;;15.33;100.00;101533.59;6186819;23;20012;-74
2022/08/27 05:55:42;;;;;;;10.13;5.90;;;;;;;15.37;100.00;101532.06;6159933;23;20009;-74
2022/08/27 06:01:03;;;;;;;10.60;6.15;;;;;;;15.39;100.00;101529.91;6186009;23;20005;-74
2022/08/27 06:01:05;;;;;;;12.13;6.28;;;;;;;15.39;100.00;101527.19;6182572;23;20016;-74
2022/08/27 06:03:35;;;;;;;12.23;6.50;;;;;;;15.45;100.00;101538.22;6159963;23;20005;-74
2022/08/27 06:06:07;;;;;;;16.77;6.47;;;;;;;15.48;100.00;101538.56;6186467;23;20009;-74
2022/08/27 06:08:34;;;;;;;11.07;6.65;;;;;;;15.53;100.00;101538.66;6185979;23;20009;-74
2022/08/27 06:11:00;;;;;;;11.82;6.63;;;;;;;15.61;100.00;101548.38;6184900;23;20015;-74
2022/08/27 06:13:26;;;;;;;12.65;6.70;;;;;;;15.58;100.00;101549.69;6185935;23;20001;-74
2022/08/27 06:16:06;;;;;;;10.60;6.30;;;;;;;15.59;100.00;101554.06;6186532;23;20051;-74
2022/08/27 06:18:33;;;;;;;12.23;6.50;;;;;;;15.61;100.00;101548.38;6185859;23;20427;-74
2022/08/27 06:20:59;;;;;;;13.35;6.82;;;;;;;15.57;100.00;101548.00;6160064;23;20012;-74
2022/08/27 06:23:25;;;;;;;14.80;6.70;;;;;;;15.58;100.00;101549.69;6159442;23;20067;-74
2022/08/27 06:25:51;;;;;;;14.77;7.32;;;;;;;15.60;100.00;101546.72;6185811;23;20016;-74
2022/08/27 06:28:20;;;;;;;14.43;7.30;;;;;;;15.61;100.00;101553.84;6185943;23;20012;-74
2022/08/27 06:30:45;;;;;;;19.38;6.90;;;;;;;15.65;100.00;101548.72;6186075;23;20012;-74
2022/08/27 06:33:10;;;;;;;19.13;7.45;;;;;;;15.68;100.00;101550.97;6185991;23;20008;-74
2022/08/27 06:35:36;;;;;;;16.42;7.70;;;;;;;15.68;100.00;101540.84;6185797;23;20009;-74
2022/08/27 06:38:01;;;;;;;14.50;6.90;;;;;;;15.65;100.00;101545.97;6186180;23;20056;-74
2022/08/27 06:40:27;;;;;;;11.32;6.53;;;;;;;15.68;100.00;101546.31;6186232;23;20063;-74
2022/08/27 06:42:52;;;;;;;15.48;7.40;;;;;;;15.71;100.00;101554.00;6185036;23;20084;-74
2022/08/27 06:45:18;;;;;;;12.23;7.05;;;;;;;15.76;100.00;101561.47;6186149;23;20009;-74
2022/08/27 06:47:44;;;;;;;11.77;6.47;;;;;;;15.79;100.00;101544.66;6185484;23;20015;-74
2022/08/27 06:50:09;;;;;;;11.75;7.28;;;;;;;15.85;100.00;101545.59;6186175;23;20422;-74
2022/08/27 06:52:34;;;;;;;13.98;7.03;;;;;;;15.85;100.00;101549.16;6185276;23;20092;-74
2022/08/27 06:55:00;;;;;;;12.32;6.80;;;;;;;15.91;100.00;101547.34;6159733;23;20089;-74
2022/08/27 06:57:25;;;;;;;14.18;6.80;;;;;;;15.98;100.00;101553.47;6185179;23;20013;-74
2022/08/27 06:59:50;;;;;;;13.30;7.25;;;;;;;16.00;100.00;101548.59;6185692;23;20308;-74
2022/08/27 07:02:16;;;;;;;12.75;6.68;;;;;;;16.05;100.00;101550.63;6156335;23;20473;-74
2022/08/27 07:04:41;;;;;;;11.93;6.53;;;;;;;16.05;100.00;101550.63;6185209;23;20009;-74
2022/08/27 07:07:10;;;;;;;11.27;6.40;;;;;;;16.12;100.00;101554.84;6185510;23;20419;-74
2022/08/27 07:09:35;;;;;;;15.30;6.30;;;;;;;16.18;100.00;101546.75;6185772;23;20023;-74
2022/08/27 07:12:01;;;;;;;14.18;7.15;;;;;;;16.32;100.00;101561.75;6186071;23;20076;-74
2022/08/27 07:14:26;;;;;;;9.98;6.13;;;;;;;16.41;100.00;101559.44;6185922;23;20129;-74
2022/08/27 07:16:52;;;;;;;10.55;6.47;;;;;;;16.45;100.00;101558.69;6158481;23;20542;-74
2022/08/27 07:19:17;;;;;;;10.13;5.70;;;;;;;16.52;100.00;101558.53;6185844;23;20005;-74
2022/08/27 07:21:43;;;;;;;16.33;5.82;;;;;;;16.53;100.00;101559.34;6185455;23;20079;-74
2022/08/27 07:24:09;;;;;;;11.30;5.40;;;;;;;16.53;100.00;101556.63;6186019;23;20031;-74
2022/08/27 07:26:38;;;;;;;14.35;5.78;;;;;;;16.57;100.00;101560.53;6185625;23;20031;-74
2022/08/27 07:29:06;;;;;;;9.80;5.40;;;;;;;16.58;100.00;101562.19;6185370;23;20005;-74
2022/08/27 07:31:34;;;;;;;11.65;5.60;;;;;;;16.59;100.00;101558.38;6183857;23;20104;-74
2022/08/27 07:34:00;;;;;;;12.23;5.53;;;;;;;16.70;100.00;101559.34;6185355;23;20041;-75
2022/08/27 07:36:25;;;;;;;12.80;5.53;;;;;;;16.78;100.00;101564.41;6159377;23;20020;-74
2022/08/27 07:38:51;;;;;;;12.15;4.88;;;;;;;16.75;100.00;101563.00;6158850;23;20323;-74
2022/08/27 07:41:17;;;;;;;8.52;4.82;;;;;;;16.79;100.00;101566.09;6159361;23;20087;-76
2022/08/27 07:46:26;;;;;;;9.20;4.82;;;;;;;16.86;100.00;101564.00;6185472;23;20017;-77
2022/08/27 07:48:54;;;;;;;9.23;4.88;;;;;;;16.88;100.00;101566.50;6158860;23;19997;-76
2022/08/27 07:51:21;;;;;;;10.65;4.40;;;;;;;16.92;100.00;101567.66;6159265;23;20013;-74
2022/08/27 07:53:46;;;;;;;12.13;4.60;;;;;;;16.95;100.00;101561.69;6183820;23;20104;-75
2022/08/27 07:56:12;;;;;;;11.45;5.10;;;;;;;16.98;100.00;101574.88;6185698;23;20032;-74
2022/08/27 07:58:39;;;;;;;8.73;4.72;;;;;;;17.05;100.00;101571.97;6197605;23;20012;-72
2022/08/27 08:01:06;;;;;;;8.05;4.15;;;;;;;17.07;100.00;101570.63;6198306;23;20020;-74
2022/08/27 08:03:31;;;;;;;7.63;4.10;;;;;;;17.11;100.00;101579.16;6185093;23;20025;-74
2022/08/27 08:06:02;;;;;;;7.93;4.40;;;;;;;17.15;100.00;101577.56;6185174;23;20059;-74
2022/08/27 08:08:28;;;;;;;9.27;4.30;;;;;;;17.21;100.00;101575.75;6184993;23;20017;-74
2022/08/27 08:10:56;;;;;;;8.38;4.55;;;;;;;17.28;100.00;101570.94;6184984;23;20005;-74
2022/08/27 08:13:21;;;;;;;11.95;4.03;;;;;;;17.36;100.00;101568.59;6159864;23;20008;-74
2022/08/27 08:15:46;;;;;;;8.90;4.05;;;;;;;17.42;100.00;101569.50;6185761;23;20014;-74
2022/08/27 08:18:12;;;;;;;14.18;4.50;;;;;;;17.44;99.51;101578.25;6210650;23;20001;-74
2022/08/27 08:20:38;;;;;;;9.00;4.30;;;;;;;17.46;96.96;101569.78;6178486;23;20458;-74
2022/08/27 08:23:04;;;;;;;10.02;3.80;;;;;;;17.47;92.21;101575.00;6185820;23;20001;-74
2022/08/27 08:25:29;;;;;;;7.85;3.72;;;;;;;17.58;95.50;101575.16;6184809;23;20005;-74
2022/08/27 08:27:55;;;;;;;9.48;4.10;;;;;;;17.65;96.71;101573.06;6184641;23;20320;-75
2022/08/27 08:30:21;;;;;;;7.10;3.70;;;;;;;17.71;90.29;101583.00;6185316;23;20339;-75
2022/08/27 08:32:46;;;;;;;10.18;4.00;;;;;;;17.73;86.68;101580.00;6184571;23;20447;-80
2022/08/27 08:35:12;;;;;;;10.32;3.88;;;;;;;17.77;89.35;101581.97;6184390;23;20005;-78
2022/08/27 08:37:37;;;;;;;9.77;4.38;;;;;;;17.80;87.67;101581.44;6184366;23;20009;-76
2022/08/27 08:40:04;;;;;;;8.93;3.88;;;;;;;17.89;88.42;101588.16;6183286;23;20024;-77
2022/08/27 08:42:42;;;;;;;9.60;4.20;;;;;;;17.96;85.00;101587.94;6184295;23;20443;-75
2022/08/27 08:45:11;;;;;;;7.82;4.57;;;;;;;17.97;82.58;101583.31;6185295;23;20101;-75
2022/08/27 08:48:03;;;;;;;11.20;4.43;;;;;;;18.04;83.84;101584.75;6185065;23;20005;-77
2022/08/27 08:50:38;;;;;;;10.55;4.20;;;;;;;18.09;81.98;101574.94;6184220;23;20027;-76
2022/08/27 08:53:44;;;;;;;9.23;3.88;;;;;;;18.18;84.40;101573.41;6184139;23;20012;-74
2022/08/27 08:56:12;;;;;;;7.75;3.50;;;;;;;18.36;84.36;101583.97;6184038;23;20058;-76
2022/08/27 08:58:48;;;;;;;11.18;4.13;;;;;;;18.41;81.42;101584.03;6157628;23;20463;-78
2022/08/27 09:01:18;;;;;;;6.40;3.72;;;;;;;18.51;79.18;101583.31;6181506;23;20001;-77
2022/08/27 09:03:52;;;;;;;5.22;3.38;;;;;;;18.60;80.39;101586.41;6157752;23;20008;-76
2022/08/27 09:06:51;;;;;;;7.90;3.47;;;;;;;18.76;79.66;101577.19;6183918;23;20016;-79
2022/08/27 09:09:25;;;;;;;6.55;3.53;;;;;;;18.89;76.40;101581.44;6183164;23;20013;-78
2022/08/27 09:12:13;;;;;;;9.27;3.22;;;;;;;18.97;77.94;101590.28;6157299;23;20009;-77
2022/08/27 09:14:52;;;;;;;7.45;2.97;;;;;;;18.94;73.38;101592.44;6157662;23;20427;-77
2022/08/27 09:17:17;;;;;;;5.28;2.30;;;;;;;18.95;68.39;101598.75;6184363;23;20067;-75
2022/08/27 09:19:43;;;;;;;5.28;2.45;;;;;;;18.97;67.64;101595.75;6184125;23;20005;-74
2022/08/27 09:22:23;;;;;;;6.38;2.15;;;;;;;18.98;67.01;101589.16;6184375;23;20017;-76
2022/08/27 09:25:05;;;;;;;5.45;1.90;;;;;;;19.07;67.76;101601.31;6157192;23;20005;-76
2022/08/27 09:27:34;;;;;;;6.93;2.22;;;;;;;19.08;66.30;101597.47;6158082;23;20056;-76
2022/08/27 09:30:07;;;;;;;4.18;2.00;;;;;;;19.11;67.97;101597.78;6183813;23;20012;-76
2022/08/27 09:32:33;;;;;;;5.72;2.10;;;;;;;19.09;66.08;101588.97;6157234;23;20423;-76
2022/08/27 09:35:02;;;;;;;7.43;2.20;;;;;;;19.17;66.46;101590.38;6183823;23;20005;-76
2022/08/27 09:37:30;;;;;;;6.97;2.33;;;;;;;19.22;67.49;101592.34;6158256;23;20013;-76
2022/08/27 09:40:22;;;;;;;5.82;2.20;;;;;;;19.21;67.18;101594.25;6183158;23;20043;-76
2022/08/27 09:42:52;;;;;;;4.03;2.00;;;;;;;19.21;66.45;101594.25;6177840;23;20005;-76
2022/08/27 09:45:26;;;;;;;6.47;2.53;;;;;;;19.11;66.78;101597.78;6184245;23;20009;-76
2022/08/27 09:48:02;;;;;;;5.05;2.17;;;;;;;19.12;67.83;101590.38;6183566;23;20016;-76
2022/08/27 09:50:38;;;;;;;5.60;2.40;;;;;;;19.27;67.95;101598.69;6183227;23;20001;-76
2022/08/27 09:53:26;;;;;;;6.80;2.30;;;;;;;19.35;66.77;101600.09;6183977;23;20005;-77
2022/08/27 09:55:56;;;;;;;5.68;2.50;;;;;;;19.39;64.60;101601.22;6156621;23;20005;-75
2022/08/27 09:58:26;;;;;;;6.57;2.60;;;;;;;19.38;66.12;101594.06;6183609;23;20012;-79
2022/08/27 10:01:05;;;;;;;6.50;2.38;;;;;;;19.45;65.92;101602.09;6179213;23;20031;-76
2022/08/27 10:03:31;;;;;;;6.38;2.47;;;;;;;19.53;65.27;101596.06;6184212;23;20005;-74
2022/08/27 10:05:57;;;;;;;5.63;2.53;;;;;;;19.65;63.71;101598.59;6184346;23;20009;-78
2022/08/27 10:08:28;;;;;;;5.40;2.65;;;;;;;19.63;63.16;101609.03;6184364;23;20012;-76
2022/08/27 10:10:58;;;;;;;4.65;2.45;;;;;;;19.63;62.40;101596.13;6183974;23;20020;-78
2022/08/27 10:13:38;;;;;;;5.72;2.50;;;;;;;19.70;63.58;101604.13;6184615;23;20001;-75
2022/08/27 10:16:40;;;;;;;6.70;2.45;;;;;;;19.72;64.74;101593.69;6183039;23;20016;-75
2022/08/27 10:19:24;;;;;;;3.95;2.13;;;;;;;19.74;63.43;101588.75;6184527;23;20005;-76
2022/08/27 10:21:59;;;;;;;2.97;1.92;;;;;;;19.81;61.87;101589.38;6184377;23;20001;-74
2022/08/27 10:24:36;;;;;;;6.43;2.40;;;;;;;19.83;62.74;101594.59;6184334;23;20005;-74
2022/08/27 10:27:08;;;;;;;6.20;2.35;;;;;;;19.88;62.63;101585.53;6158442;23;20013;-74
2022/08/27 10:29:51;;;;;;;6.22;2.50;;;;;;;19.95;63.24;101583.38;6186472;23;20035;-74
2022/08/27 10:32:38;;;;;;;5.80;2.20;;;;;;;19.98;63.75;101583.66;6185003;23;20005;-74
2022/08/27 10:35:16;;;;;;;8.00;2.60;;;;;;;19.95;61.97;101584.19;6185274;23;20004;-75
2022/08/27 10:38:09;;;;;;;6.65;2.38;;;;;;;19.94;62.97;101582.56;6159672;23;20013;-73
2022/08/27 10:40:57;;;;;;;4.82;2.20;;;;;;;19.83;63.40;101580.84;6185900;23;20419;-77
2022/08/27 10:43:48;;;;;;;4.57;2.35;;;;;;;19.85;62.92;101578.66;6159444;23;20013;-77
2022/08/27 10:46:25;;;;;;;5.32;2.40;;;;;;;19.82;63.75;101580.03;6186772;23;20035;-76
2022/08/27 10:49:00;;;;;;;4.97;2.70;;;;;;;19.83;62.14;101575.38;6186284;23;20493;-76
2022/08/27 10:52:16;;;;;;;4.72;2.25;;;;;;;19.85;63.73;101573.16;6209303;23;20012;-75
2022/08/27 10:54:58;;;;;;;8.93;2.15;;;;;;;19.87;64.18;101581.13;6182060;23;20015;-75
2022/08/27 10:57:55;;;;;;;6.03;2.08;;;;;;;19.78;62.82;101575.38;6187255;23;20005;-75
2022/08/27 11:00:23;;;;;;;8.70;2.20;;;;;;;19.77;62.91;101576.41;6185999;23;20005;-75
2022/08/27 11:02:55;;;;;;;6.45;2.20;;;;;;;19.78;63.85;101576.19;6156151;23;20511;-75
2022/08/27 11:05:29;;;;;;;6.40;2.13;;;;;;;19.86;64.43;101583.06;6185683;23;20009;-74
2022/08/27 11:08:12;;;;;;;5.90;2.00;;;;;;;19.82;62.07;101571.81;6185803;23;20012;-75
2022/08/27 11:10:45;;;;;;;5.15;2.30;;;;;;;19.90;63.47;101575.94;6185092;23;20012;-75
2022/08/27 11:13:23;;;;;;;6.18;2.20;;;;;;;19.92;62.62;101576.50;6199025;23;20000;-75
2022/08/27 11:15:52;;;;;;;4.30;1.80;;;;;;;19.95;62.64;101584.19;6213357;23;20318;-75
2022/08/27 11:18:23;;;;;;;8.23;2.15;;;;;;;19.88;62.41;101571.81;6187158;23;20001;-76
2022/08/27 11:21:12;;;;;;;6.38;2.03;;;;;;;19.94;62.75;101571.56;6185961;23;20024;-76
2022/08/27 11:23:57;;;;;;;4.32;1.98;;;;;;;19.93;62.99;101569.06;6185330;23;20009;-74
2022/08/27 11:26:22;;;;;;;6.13;1.88;;;;;;;19.96;61.62;101572.13;6185834;23;20005;-73
2022/08/27 11:28:52;;;;;;;5.30;1.98;;;;;;;19.95;61.30;101570.44;6184739;23;20005;-76